Time;durP1;ratioP1;P1;durP2;ratioP2;P2;SDS_P1;SDS_P2;PMS_P1;PMS_P2;Temp;Humidity;BMP_temperature;BMP_pressure;BME280_temperature;BME280_humidity;BME280_pressure;Samples;Min_cycle;Max_cycle;Signal;HPM_P1;HPM_P2
2023/09/15 00:00:23;;;;;;;2.53;2.33;;;;;;;;;;4991657;28;20405;-70
2023/09/15 00:02:49;;;;;;;2.60;2.40;;;;;;;;;;4993999;28;20610;-70
2023/09/15 00:05:15;;;;;;;2.38;2.17;;;;;;;;;;4977773;28;20035;-70
2023/09/15 00:07:41;;;;;;;2.33;2.13;;;;;;;;;;4991261;28;20041;-72
2023/09/15 00:10:07;;;;;;;5.38;2.60;;;;;;;;;;4987745;28;20034;-70
2023/09/15 00:12:34;;;;;;;2.70;2.47;;;;;;;;;;4995888;28;20536;-71
2023/09/15 00:15:07;;;;;;;2.90;2.42;;;;;;;;;;4995096;28;20030;-70
2023/09/15 00:17:35;;;;;;;2.60;2.20;;;;;;;;;;4987641;28;20030;-70
2023/09/15 00:20:04;;;;;;;2.85;2.45;;;;;;;;;;4993670;28;20034;-70
2023/09/15 00:22:30;;;;;;;2.40;2.30;;;;;;;;;;4996664;28;20496;-70
2023/09/15 00:24:55;;;;;;;2.97;2.58;;;;;;;;;;4991557;28;20027;-69
2023/09/15 00:27:21;;;;;;;2.45;2.25;;;;;;;;;;4992756;28;20038;-70
2023/09/15 00:29:46;;;;;;;3.00;2.13;;;;;;;;;;4988444;28;20480;-70
2023/09/15 00:32:12;;;;;;;4.38;2.45;;;;;;;;;;4995778;28;20100;-70
2023/09/15 00:34:37;;;;;;;2.35;2.15;;;;;;;;;;4980069;28;20392;-70
2023/09/15 00:37:02;;;;;;;2.20;2.00;;;;;;;;;;4993721;28;20045;-70
2023/09/15 00:39:28;;;;;;;2.55;2.35;;;;;;;;;;4992791;28;20065;-70
2023/09/15 00:41:53;;;;;;;2.22;2.13;;;;;;;;;;4991095;28;20077;-70
2023/09/15 00:44:19;;;;;;;2.67;2.45;;;;;;;;;;4996273;28;20034;-72
2023/09/15 00:46:44;;;;;;;2.55;2.35;;;;;;;;;;4995675;28;20035;-70
2023/09/15 00:49:10;;;;;;;3.28;2.60;;;;;;;;;;4991621;28;20030;-70
2023/09/15 00:51:35;;;;;;;2.92;2.47;;;;;;;;;;4994785;28;20062;-70
2023/09/15 00:54:01;;;;;;;2.83;2.60;;;;;;;;;;4995969;28;20033;-70
2023/09/15 00:56:27;;;;;;;3.00;2.40;;;;;;;;;;4995459;28;20073;-70
2023/09/15 00:58:53;;;;;;;2.50;2.30;;;;;;;;;;4992199;28;20030;-70
2023/09/15 01:01:19;;;;;;;3.28;2.30;;;;;;;;;;4982652;28;20034;-71
2023/09/15 01:03:46;;;;;;;3.35;2.80;;;;;;;;;;4984190;28;20681;-71
2023/09/15 01:06:13;;;;;;;2.80;2.50;;;;;;;;;;4991219;28;20403;-71
2023/09/15 01:08:38;;;;;;;4.35;3.08;;;;;;;;;;4995719;28;20026;-71
2023/09/15 01:11:06;;;;;;;3.08;2.70;;;;;;;;;;4988476;28;20099;-71
2023/09/15 01:13:35;;;;;;;4.93;2.63;;;;;;;;;;4995031;28;20033;-70
2023/09/15 01:16:27;;;;;;;4.18;2.53;;;;;;;;;;4986912;28;20046;-70
2023/09/15 01:19:08;;;;;;;2.85;2.65;;;;;;;;;;4986410;28;20046;-70
2023/09/15 01:22:06;;;;;;;4.75;2.78;;;;;;;;;;4995748;28;20034;-70
2023/09/15 01:25:01;;;;;;;3.75;3.05;;;;;;;;;;4988527;28;20674;-70
2023/09/15 01:27:35;;;;;;;2.80;2.45;;;;;;;;;;5007729;28;20038;-70
2023/09/15 01:30:02;;;;;;;3.00;2.70;;;;;;;;;;4988201;28;20041;-70
2023/09/15 01:32:28;;;;;;;2.95;2.33;;;;;;;;;;4999251;28;20453;-70
2023/09/15 01:34:54;;;;;;;4.53;2.70;;;;;;;;;;4995472;28;20109;-69
2023/09/15 01:37:20;;;;;;;3.60;2.88;;;;;;;;;;4998413;28;20141;-70
2023/09/15 01:39:46;;;;;;;2.90;2.70;;;;;;;;;;4996984;28;20180;-70
2023/09/15 01:42:12;;;;;;;5.63;2.72;;;;;;;;;;4999021;28;20085;-70
2023/09/15 01:44:37;;;;;;;5.68;3.00;;;;;;;;;;4996051;28;20073;-70
2023/09/15 01:47:06;;;;;;;5.43;2.65;;;;;;;;;;4997666;28;20045;-70
2023/09/15 01:49:32;;;;;;;2.95;2.63;;;;;;;;;;4994291;28;20106;-70
2023/09/15 01:51:59;;;;;;;3.03;2.72;;;;;;;;;;4997480;28;20034;-69
2023/09/15 01:54:25;;;;;;;3.03;2.70;;;;;;;;;;4996953;28;20539;-69
2023/09/15 01:56:51;;;;;;;4.18;2.67;;;;;;;;;;4997686;28;20042;-69
2023/09/15 01:59:16;;;;;;;2.80;2.60;;;;;;;;;;4992908;28;20035;-70
2023/09/15 02:01:42;;;;;;;3.72;2.67;;;;;;;;;;4991090;28;20058;-69
2023/09/15 02:04:07;;;;;;;2.70;2.50;;;;;;;;;;4998077;28;20498;-69
2023/09/15 02:06:33;;;;;;;2.70;2.50;;;;;;;;;;4998683;28;20042;-69
2023/09/15 02:08:59;;;;;;;2.92;2.47;;;;;;;;;;4997758;28;20033;-69
2023/09/15 02:11:24;;;;;;;4.40;3.00;;;;;;;;;;4993999;28;20070;-70
2023/09/15 02:13:49;;;;;;;2.80;2.60;;;;;;;;;;4990188;28;20058;-70
2023/09/15 02:16:15;;;;;;;4.28;2.47;;;;;;;;;;4998876;28;20802;-70
2023/09/15 02:18:40;;;;;;;2.35;2.17;;;;;;;;;;4993208;28;20050;-69
2023/09/15 02:21:06;;;;;;;2.47;2.28;;;;;;;;;;4991851;28;20055;-70
2023/09/15 02:23:32;;;;;;;2.95;2.40;;;;;;;;;;4998711;28;20069;-70
2023/09/15 02:26:04;;;;;;;2.60;2.40;;;;;;;;;;4987874;28;20519;-70
2023/09/15 02:28:31;;;;;;;2.58;2.38;;;;;;;;;;4997929;28;20594;-70
2023/09/15 02:30:57;;;;;;;2.55;2.35;;;;;;;;;;4995214;28;20041;-69
2023/09/15 02:33:22;;;;;;;2.60;2.40;;;;;;;;;;4978278;28;20023;-71
2023/09/15 02:35:48;;;;;;;2.60;2.40;;;;;;;;;;4997009;28;20034;-71
2023/09/15 02:38:14;;;;;;;2.65;2.45;;;;;;;;;;4997555;28;20680;-71
2023/09/15 02:40:40;;;;;;;2.35;2.25;;;;;;;;;;4993833;28;20032;-71
2023/09/15 02:43:05;;;;;;;2.70;2.50;;;;;;;;;;4993173;28;20026;-71
2023/09/15 02:45:35;;;;;;;2.33;2.10;;;;;;;;;;4996478;28;20670;-71
2023/09/15 02:48:00;;;;;;;2.70;2.50;;;;;;;;;;4995986;28;21127;-72
2023/09/15 02:50:26;;;;;;;2.40;2.22;;;;;;;;;;4995055;28;20126;-71
2023/09/15 02:52:51;;;;;;;2.92;2.15;;;;;;;;;;4987982;28;20026;-71
2023/09/15 02:55:17;;;;;;;2.60;2.40;;;;;;;;;;4979009;28;20125;-71
2023/09/15 02:57:42;;;;;;;2.40;2.20;;;;;;;;;;4996070;28;20041;-71
2023/09/15 03:00:13;;;;;;;2.67;2.47;;;;;;;;;;4979042;28;20034;-70
2023/09/15 03:02:39;;;;;;;2.55;2.35;;;;;;;;;;4992020;28;20392;-71
2023/09/15 03:05:05;;;;;;;2.50;2.30;;;;;;;;;;4994619;28;20031;-71
2023/09/15 03:07:31;;;;;;;2.78;2.35;;;;;;;;;;4997370;28;20034;-71
2023/09/15 03:09:57;;;;;;;3.50;2.42;;;;;;;;;;4987682;28;20034;-71
2023/09/15 03:12:22;;;;;;;2.92;2.40;;;;;;;;;;4995107;28;20029;-71
2023/09/15 03:14:50;;;;;;;2.17;2.05;;;;;;;;;;4996337;28;20026;-71
2023/09/15 03:17:17;;;;;;;2.47;2.00;;;;;;;;;;4997555;28;20137;-71
2023/09/15 03:19:42;;;;;;;2.25;2.05;;;;;;;;;;4997310;28;20081;-71
2023/09/15 03:22:08;;;;;;;5.47;2.00;;;;;;;;;;4994755;28;20046;-71
2023/09/15 03:24:33;;;;;;;2.88;1.92;;;;;;;;;;4985732;28;20027;-71
2023/09/15 03:26:59;;;;;;;2.20;2.10;;;;;;;;;;4989306;28;20093;-71
2023/09/15 03:29:24;;;;;;;3.55;2.25;;;;;;;;;;4995835;28;20026;-71
2023/09/15 03:31:50;;;;;;;2.53;1.83;;;;;;;;;;4977232;28;20042;-71
2023/09/15 03:34:15;;;;;;;5.40;2.17;;;;;;;;;;4996534;28;20022;-71
2023/09/15 03:36:40;;;;;;;2.13;2.00;;;;;;;;;;4993677;28;20070;-71
2023/09/15 03:39:06;;;;;;;2.05;1.80;;;;;;;;;;4996092;28;20022;-71
2023/09/15 03:41:31;;;;;;;2.10;2.00;;;;;;;;;;4984408;28;20039;-71
2023/09/15 03:43:59;;;;;;;2.22;2.03;;;;;;;;;;4995105;28;20034;-71
2023/09/15 03:46:24;;;;;;;3.03;2.30;;;;;;;;;;4994776;28;20042;-71
2023/09/15 03:48:50;;;;;;;2.08;1.98;;;;;;;;;;4997322;28;20018;-71
2023/09/15 03:51:15;;;;;;;2.20;2.10;;;;;;;;;;4993235;28;20507;-71
2023/09/15 03:53:41;;;;;;;2.00;1.90;;;;;;;;;;4995042;28;20037;-71
2023/09/15 03:56:06;;;;;;;2.55;2.13;;;;;;;;;;4993571;28;20034;-71
2023/09/15 03:58:32;;;;;;;2.00;1.90;;;;;;;;;;4995448;28;20797;-71
2023/09/15 04:00:57;;;;;;;2.20;2.10;;;;;;;;;;4990826;28;20123;-71
2023/09/15 04:03:23;;;;;;;1.95;1.85;;;;;;;;;;4988060;28;20034;-71
2023/09/15 04:05:48;;;;;;;6.00;2.08;;;;;;;;;;4986758;28;20042;-71
2023/09/15 04:08:14;;;;;;;2.20;2.00;;;;;;;;;;4996853;28;20503;-72
2023/09/15 04:10:41;;;;;;;1.90;1.80;;;;;;;;;;4991741;28;20042;-72
2023/09/15 04:13:06;;;;;;;3.70;1.80;;;;;;;;;;4994470;28;20101;-71
2023/09/15 04:15:32;;;;;;;2.40;2.17;;;;;;;;;;4988912;28;20070;-71
2023/09/15 04:17:57;;;;;;;1.98;1.88;;;;;;;;;;4993792;28;20042;-72
2023/09/15 04:20:23;;;;;;;2.53;2.00;;;;;;;;;;4995344;28;20568;-72
2023/09/15 04:22:49;;;;;;;2.00;1.90;;;;;;;;;;4976285;28;20130;-72
2023/09/15 04:25:14;;;;;;;2.20;2.00;;;;;;;;;;4989765;28;20034;-71
2023/09/15 04:27:40;;;;;;;2.47;1.88;;;;;;;;;;4993947;28;20056;-71
2023/09/15 04:30:06;;;;;;;2.10;2.00;;;;;;;;;;4986495;28;20121;-71
2023/09/15 04:32:32;;;;;;;2.03;1.88;;;;;;;;;;4992690;28;20030;-71
2023/09/15 04:34:57;;;;;;;2.05;1.90;;;;;;;;;;4992313;28;20058;-71
2023/09/15 04:37:23;;;;;;;2.33;2.13;;;;;;;;;;4995700;28;20044;-70
2023/09/15 04:39:53;;;;;;;2.42;2.20;;;;;;;;;;4996263;28;20026;-72
2023/09/15 04:42:19;;;;;;;2.95;1.95;;;;;;;;;;4990039;28;20492;-71
2023/09/15 04:44:45;;;;;;;2.20;2.00;;;;;;;;;;4995661;28;20052;-70
2023/09/15 04:47:12;;;;;;;3.55;2.22;;;;;;;;;;4994830;28;20038;-70
2023/09/15 04:49:37;;;;;;;1.90;1.80;;;;;;;;;;4994754;28;20033;-70
2023/09/15 04:52:03;;;;;;;2.10;1.90;;;;;;;;;;4982883;28;20034;-70
2023/09/15 04:54:29;;;;;;;2.10;2.00;;;;;;;;;;4988668;28;20045;-70
2023/09/15 04:56:54;;;;;;;3.65;2.30;;;;;;;;;;4991564;28;20027;-70
2023/09/15 04:59:19;;;;;;;2.20;2.00;;;;;;;;;;4985103;28;20018;-70
2023/09/15 05:01:46;;;;;;;2.05;1.95;;;;;;;;;;4992910;28;20625;-73
2023/09/15 05:04:15;;;;;;;2.55;2.03;;;;;;;;;;4999783;28;20054;-72
2023/09/15 05:06:41;;;;;;;3.45;2.03;;;;;;;;;;4991026;28;20039;-72
2023/09/15 05:09:10;;;;;;;2.10;2.00;;;;;;;;;;4989388;28;20042;-72
2023/09/15 05:11:38;;;;;;;3.50;1.90;;;;;;;;;;4992361;28;20042;-72
2023/09/15 05:14:04;;;;;;;2.22;2.08;;;;;;;;;;4988742;28;20030;-71
2023/09/15 05:16:30;;;;;;;2.10;2.00;;;;;;;;;;4991309;28;20388;-71
2023/09/15 05:18:55;;;;;;;2.00;1.90;;;;;;;;;;4985043;28;20046;-71
2023/09/15 05:21:21;;;;;;;3.53;2.00;;;;;;;;;;4978337;28;20047;-72
2023/09/15 05:23:46;;;;;;;2.10;1.90;;;;;;;;;;4980925;28;20030;-73
2023/09/15 05:26:12;;;;;;;2.05;1.95;;;;;;;;;;4990949;28;20042;-75
2023/09/15 05:28:37;;;;;;;1.92;1.80;;;;;;;;;;4986861;28;20030;-71
2023/09/15 05:31:03;;;;;;;3.85;2.15;;;;;;;;;;4982695;28;20066;-72
2023/09/15 05:33:28;;;;;;;3.10;2.13;;;;;;;;;;4981268;28;20069;-73
2023/09/15 05:35:55;;;;;;;3.88;2.70;;;;;;;;;;4985061;28;20065;-72
2023/09/15 05:38:24;;;;;;;2.47;2.28;;;;;;;;;;4980901;28;20084;-72
2023/09/15 05:40:50;;;;;;;2.65;2.10;;;;;;;;;;4985955;28;20042;-72
2023/09/15 05:43:20;;;;;;;5.45;2.25;;;;;;;;;;4982889;28;20039;-72
2023/09/15 05:45:47;;;;;;;3.08;2.10;;;;;;;;;;4984982;28;20038;-71
2023/09/15 05:48:17;;;;;;;2.60;2.30;;;;;;;;;;4992028;28;20029;-72
2023/09/15 05:50:43;;;;;;;4.40;1.90;;;;;;;;;;4980517;28;20137;-71
2023/09/15 05:53:09;;;;;;;2.53;2.33;;;;;;;;;;4983383;28;20079;-71
2023/09/15 05:55:34;;;;;;;2.97;2.10;;;;;;;;;;4977917;28;20121;-72
2023/09/15 05:57:59;;;;;;;3.15;2.30;;;;;;;;;;4988260;28;20076;-71
2023/09/15 06:00:25;;;;;;;2.25;2.13;;;;;;;;;;4981949;28;20119;-72
2023/09/15 06:02:50;;;;;;;6.22;2.53;;;;;;;;;;4993863;28;20548;-71
2023/09/15 06:05:19;;;;;;;2.45;2.17;;;;;;;;;;4997814;28;20034;-71
2023/09/15 06:07:45;;;;;;;2.72;2.20;;;;;;;;;;4995269;28;20034;-72
2023/09/15 06:10:11;;;;;;;3.90;2.40;;;;;;;;;;4993395;28;20125;-71
2023/09/15 06:12:36;;;;;;;1.92;1.83;;;;;;;;;;4994642;28;20058;-72
2023/09/15 06:15:02;;;;;;;2.35;2.20;;;;;;;;;;4991083;28;20113;-70
2023/09/15 06:17:27;;;;;;;4.28;2.05;;;;;;;;;;4985433;28;20030;-70
2023/09/15 06:19:54;;;;;;;2.75;2.03;;;;;;;;;;4986279;28;20125;-69
2023/09/15 06:22:19;;;;;;;2.83;2.50;;;;;;;;;;4991413;28;20049;-70
2023/09/15 06:24:45;;;;;;;5.80;2.40;;;;;;;;;;4997300;28;20038;-70
2023/09/15 06:27:10;;;;;;;3.05;2.30;;;;;;;;;;4995129;28;20041;-70
2023/09/15 06:29:36;;;;;;;3.70;2.28;;;;;;;;;;4995547;28;20034;-69
2023/09/15 06:32:01;;;;;;;2.03;1.92;;;;;;;;;;4986577;28;20030;-70
2023/09/15 06:34:27;;;;;;;2.60;2.03;;;;;;;;;;4991184;28;20798;-70
2023/09/15 06:36:52;;;;;;;7.65;2.50;;;;;;;;;;4995970;28;20057;-71
2023/09/15 06:39:19;;;;;;;5.45;2.28;;;;;;;;;;4988626;28;20041;-71
2023/09/15 06:41:45;;;;;;;2.63;2.42;;;;;;;;;;4994936;28;20043;-70
2023/09/15 06:44:11;;;;;;;3.03;2.28;;;;;;;;;;4993392;28;20053;-71
2023/09/15 06:46:36;;;;;;;3.25;2.30;;;;;;;;;;4985345;28;20034;-70
2023/09/15 06:49:02;;;;;;;3.78;2.13;;;;;;;;;;4988269;28;20034;-72
2023/09/15 06:51:27;;;;;;;4.55;2.20;;;;;;;;;;4984308;28;20551;-71
2023/09/15 06:53:53;;;;;;;4.15;2.40;;;;;;;;;;4981148;28;20538;-69
2023/09/15 06:56:18;;;;;;;2.85;2.20;;;;;;;;;;4989395;28;20400;-69
2023/09/15 06:58:44;;;;;;;3.00;2.40;;;;;;;;;;4992838;28;20069;-69
2023/09/15 07:01:09;;;;;;;6.75;2.65;;;;;;;;;;4992639;28;21151;-68
2023/09/15 07:03:35;;;;;;;3.80;2.38;;;;;;;;;;4988938;28;20035;-69
2023/09/15 07:06:01;;;;;;;4.18;2.55;;;;;;;;;;4982899;28;20042;-70
2023/09/15 07:08:27;;;;;;;4.85;2.40;;;;;;;;;;4992725;28;20030;-70
2023/09/15 07:10:52;;;;;;;4.93;2.30;;;;;;;;;;4996058;28;20041;-70
2023/09/15 07:13:18;;;;;;;2.40;2.30;;;;;;;;;;4984879;28;20103;-70
2023/09/15 07:15:47;;;;;;;2.60;2.40;;;;;;;;;;4977543;28;20093;-70
2023/09/15 07:18:13;;;;;;;3.80;2.40;;;;;;;;;;4997469;28;20057;-70
2023/09/15 07:20:38;;;;;;;3.90;2.40;;;;;;;;;;5006719;28;20113;-70
2023/09/15 07:23:04;;;;;;;4.45;2.50;;;;;;;;;;4987780;28;20057;-70
2023/09/15 07:25:29;;;;;;;5.68;2.60;;;;;;;;;;4991949;28;20035;-70
2023/09/15 07:27:55;;;;;;;4.68;2.50;;;;;;;;;;4990932;28;20031;-70
2023/09/15 07:30:20;;;;;;;7.63;2.40;;;;;;;;;;4970293;28;20053;-70
2023/09/15 07:32:46;;;;;;;3.28;2.30;;;;;;;;;;4978533;28;20084;-70
2023/09/15 07:35:12;;;;;;;3.92;2.40;;;;;;;;;;4993928;28;20120;-70
2023/09/15 07:37:38;;;;;;;2.50;2.30;;;;;;;;;;4996351;28;20053;-70
2023/09/15 07:40:07;;;;;;;3.20;2.28;;;;;;;;;;4993816;28;20500;-70
2023/09/15 07:42:33;;;;;;;3.00;2.53;;;;;;;;;;4994325;28;20030;-70
2023/09/15 07:44:58;;;;;;;4.03;2.33;;;;;;;;;;4992123;28;20073;-70
2023/09/15 07:47:24;;;;;;;2.92;2.40;;;;;;;;;;4991202;28;20038;-70
2023/09/15 07:49:49;;;;;;;2.85;2.47;;;;;;;;;;4991188;28;20027;-70
2023/09/15 07:52:15;;;;;;;2.78;2.58;;;;;;;;;;4993478;28;20465;-70
2023/09/15 07:54:41;;;;;;;2.80;2.60;;;;;;;;;;4998733;28;20121;-73
2023/09/15 07:57:06;;;;;;;3.63;2.10;;;;;;;;;;4995116;28;20415;-72
2023/09/15 07:59:32;;;;;;;4.85;2.25;;;;;;;;;;4987512;28;20473;-73
2023/09/15 08:01:57;;;;;;;2.80;2.58;;;;;;;;;;4996330;28;20145;-72
2023/09/15 08:04:22;;;;;;;5.50;2.55;;;;;;;;;;4993276;28;20038;-72
2023/09/15 08:06:49;;;;;;;2.90;2.40;;;;;;;;;;4995382;28;20034;-72
2023/09/15 08:09:16;;;;;;;3.42;2.20;;;;;;;;;;4993039;28;20029;-72
2023/09/15 08:11:41;;;;;;;3.13;2.30;;;;;;;;;;4993406;28;20033;-72
2023/09/15 08:14:07;;;;;;;3.03;2.38;;;;;;;;;;4993818;28;20022;-72
2023/09/15 08:16:33;;;;;;;2.88;2.25;;;;;;;;;;4985355;28;20105;-71
2023/09/15 08:19:01;;;;;;;3.83;2.20;;;;;;;;;;4987902;28;20575;-71
2023/09/15 08:21:26;;;;;;;3.03;2.33;;;;;;;;;;4984394;28;20042;-71
2023/09/15 08:23:52;;;;;;;5.40;2.20;;;;;;;;;;4992964;28;20097;-74
2023/09/15 08:26:17;;;;;;;5.43;2.10;;;;;;;;;;4987654;28;20065;-75
2023/09/15 08:28:43;;;;;;;2.15;2.05;;;;;;;;;;4984217;28;20030;-73
2023/09/15 08:31:11;;;;;;;2.50;2.30;;;;;;;;;;4989587;28;20042;-74
2023/09/15 08:33:36;;;;;;;2.22;2.03;;;;;;;;;;4985342;28;20038;-74
2023/09/15 08:36:03;;;;;;;5.05;1.80;;;;;;;;;;4982617;28;20042;-70
2023/09/15 08:38:31;;;;;;;4.10;1.80;;;;;;;;;;4991735;28;20030;-67
2023/09/15 08:41:17;;;;;;;2.05;1.95;;;;;;;;;;4994395;28;20041;-67
2023/09/15 08:43:43;;;;;;;4.95;1.70;;;;;;;;;;4990038;28;20568;-67
2023/09/15 08:46:11;;;;;;;8.82;2.28;;;;;;;;;;4992879;28;20404;-67
2023/09/15 08:48:40;;;;;;;2.63;2.10;;;;;;;;;;4981930;28;20511;-67
2023/09/15 08:51:07;;;;;;;3.22;2.20;;;;;;;;;;4985394;28;20041;-67
2023/09/15 08:53:34;;;;;;;3.83;2.50;;;;;;;;;;4987227;28;20026;-67
2023/09/15 08:56:00;;;;;;;5.70;2.35;;;;;;;;;;4984602;28;20653;-68
2023/09/15 08:58:27;;;;;;;3.33;2.40;;;;;;;;;;4991149;28;20077;-67
2023/09/15 09:00:54;;;;;;;4.20;2.35;;;;;;;;;;4985868;28;20038;-67
2023/09/15 09:03:23;;;;;;;4.55;2.17;;;;;;;;;;4996081;28;20029;-67
2023/09/15 09:05:49;;;;;;;5.78;2.20;;;;;;;;;;4995073;28;20500;-68
2023/09/15 09:08:19;;;;;;;2.80;1.80;;;;;;;;;;4991567;28;20480;-67
2023/09/15 09:10:46;;;;;;;3.60;1.80;;;;;;;;;;4991962;28;20062;-67
2023/09/15 09:13:12;;;;;;;3.85;1.75;;;;;;;;;;4992912;28;20365;-67
2023/09/15 09:15:39;;;;;;;1.83;1.73;;;;;;;;;;4993680;28;20061;-67
2023/09/15 09:18:15;;;;;;;1.73;1.63;;;;;;;;;;4989169;28;20056;-67
2023/09/15 09:20:40;;;;;;;2.42;1.92;;;;;;;;;;4988195;28;20109;-67
2023/09/15 09:23:07;;;;;;;3.33;1.70;;;;;;;;;;4991589;28;20073;-67
2023/09/15 09:25:33;;;;;;;7.35;1.90;;;;;;;;;;4983690;28;20044;-67
2023/09/15 09:28:00;;;;;;;1.67;1.58;;;;;;;;;;4993371;28;20034;-67
2023/09/15 09:30:29;;;;;;;1.95;1.75;;;;;;;;;;4984599;28;20569;-67
2023/09/15 09:33:01;;;;;;;2.83;1.60;;;;;;;;;;4993058;28;20052;-67
2023/09/15 09:35:26;;;;;;;1.73;1.63;;;;;;;;;;4993252;28;20511;-67
2023/09/15 09:37:53;;;;;;;1.45;1.35;;;;;;;;;;4986280;28;20023;-67
2023/09/15 09:40:20;;;;;;;2.22;1.80;;;;;;;;;;4991929;28;20046;-67
2023/09/15 09:42:47;;;;;;;1.60;1.50;;;;;;;;;;4990974;28;20038;-67
2023/09/15 09:45:14;;;;;;;3.17;1.52;;;;;;;;;;4988312;28;20057;-67
2023/09/15 09:47:40;;;;;;;2.00;1.63;;;;;;;;;;4998665;28;20033;-67
2023/09/15 09:50:06;;;;;;;1.70;1.60;;;;;;;;;;4993318;28;20018;-67
2023/09/15 09:52:33;;;;;;;2.10;1.63;;;;;;;;;;4987023;28;20381;-67
2023/09/15 09:55:02;;;;;;;1.55;1.45;;;;;;;;;;4988344;28;20038;-67
2023/09/15 09:57:28;;;;;;;1.63;1.52;;;;;;;;;;4981130;28;20114;-67
2023/09/15 09:59:54;;;;;;;2.60;1.60;;;;;;;;;;4985123;28;20045;-67
2023/09/15 10:02:19;;;;;;;1.52;1.42;;;;;;;;;;4997512;28;20030;-67
2023/09/15 10:04:45;;;;;;;1.75;1.38;;;;;;;;;;4992938;28;20168;-67
2023/09/15 10:07:11;;;;;;;1.60;1.50;;;;;;;;;;4998653;28;20034;-67
2023/09/15 10:09:37;;;;;;;1.60;1.50;;;;;;;;;;4989881;28;20030;-67
2023/09/15 10:12:03;;;;;;;2.33;1.15;;;;;;;;;;4987741;28;20039;-67
2023/09/15 10:14:30;;;;;;;1.55;1.38;;;;;;;;;;4999058;28;20109;-67
2023/09/15 10:16:56;;;;;;;1.60;1.33;;;;;;;;;;4991802;28;20034;-67
2023/09/15 10:19:24;;;;;;;1.55;1.40;;;;;;;;;;4995087;28;20050;-67
2023/09/15 10:21:50;;;;;;;1.60;1.48;;;;;;;;;;4990431;28;20635;-67
2023/09/15 10:24:16;;;;;;;1.48;1.38;;;;;;;;;;4993459;28;20767;-68
2023/09/15 10:26:41;;;;;;;1.10;1.10;;;;;;;;;;4992705;28;20034;-68
2023/09/15 10:29:15;;;;;;;1.45;1.35;;;;;;;;;;4991397;28;20034;-68
2023/09/15 10:31:45;;;;;;;1.83;1.50;;;;;;;;;;4992174;28;20400;-68
2023/09/15 10:34:11;;;;;;;4.85;1.42;;;;;;;;;;4992128;28;20045;-67
2023/09/15 10:36:39;;;;;;;4.07;2.33;;;;;;;;;;4994095;28;20432;-68
2023/09/15 10:39:15;;;;;;;2.42;1.38;;;;;;;;;;4987541;28;20049;-69
2023/09/15 10:41:41;;;;;;;2.55;1.70;;;;;;;;;;4983789;28;20042;-69
2023/09/15 10:44:07;;;;;;;1.42;1.30;;;;;;;;;;4989636;28;20081;-70
2023/09/15 10:46:40;;;;;;;2.78;1.23;;;;;;;;;;4988133;28;20054;-75
2023/09/15 10:49:14;;;;;;;2.03;1.45;;;;;;;;;;4997043;28;20034;-69
2023/09/15 10:51:57;;;;;;;1.80;1.45;;;;;;;;;;4993548;28;20665;-69
2023/09/15 10:54:30;;;;;;;2.75;1.30;;;;;;;;;;4983698;28;20029;-70
2023/09/15 10:56:57;;;;;;;4.07;1.42;;;;;;;;;;4993358;28;20050;-69
2023/09/15 10:59:24;;;;;;;1.85;1.55;;;;;;;;;;4990883;28;20035;-71
2023/09/15 11:01:50;;;;;;;2.17;1.65;;;;;;;;;;4991636;28;20050;-68
2023/09/15 11:04:22;;;;;;;1.40;1.08;;;;;;;;;;4990166;28;20084;-68
2023/09/15 11:06:49;;;;;;;4.60;1.58;;;;;;;;;;4990861;28;20098;-70
2023/09/15 11:09:15;;;;;;;3.10;1.90;;;;;;;;;;4987437;28;20559;-70
2023/09/15 11:11:48;;;;;;;3.13;1.98;;;;;;;;;;4986734;28;20050;-70
2023/09/15 11:14:18;;;;;;;1.58;1.27;;;;;;;;;;4988957;28;20489;-70
2023/09/15 11:16:45;;;;;;;1.73;1.50;;;;;;;;;;4982638;28;20044;-70
2023/09/15 11:19:14;;;;;;;1.52;1.40;;;;;;;;;;4993612;28;20054;-70
2023/09/15 11:21:40;;;;;;;1.88;1.50;;;;;;;;;;4989549;28;20038;-70
2023/09/15 11:24:10;;;;;;;1.50;1.38;;;;;;;;;;4984466;28;20034;-71
2023/09/15 11:26:36;;;;;;;2.17;1.60;;;;;;;;;;5004308;28;20512;-71
2023/09/15 11:29:06;;;;;;;2.08;1.52;;;;;;;;;;4988813;28;20109;-70
2023/09/15 11:31:35;;;;;;;1.70;1.50;;;;;;;;;;4998885;28;20100;-70
2023/09/15 11:34:00;;;;;;;2.58;1.55;;;;;;;;;;4988527;28;20029;-70
2023/09/15 11:36:27;;;;;;;2.53;1.52;;;;;;;;;;4992070;28;20043;-70
2023/09/15 11:38:52;;;;;;;2.38;2.05;;;;;;;;;;4989954;28;20022;-71
2023/09/15 11:41:19;;;;;;;2.45;1.60;;;;;;;;;;4983804;28;20037;-70
2023/09/15 11:43:45;;;;;;;2.00;1.77;;;;;;;;;;4986033;28;20042;-70
2023/09/15 11:46:13;;;;;;;1.73;1.63;;;;;;;;;;4988735;28;20039;-70
2023/09/15 11:48:40;;;;;;;2.42;1.80;;;;;;;;;;4992245;28;20026;-70
2023/09/15 11:51:10;;;;;;;1.58;1.45;;;;;;;;;;4990074;28;20114;-70
2023/09/15 11:53:38;;;;;;;1.70;1.60;;;;;;;;;;4989918;28;20044;-70
2023/09/15 11:56:05;;;;;;;6.45;1.67;;;;;;;;;;4992762;28;20093;-71
2023/09/15 11:58:32;;;;;;;2.10;1.60;;;;;;;;;;4986293;28;20042;-70
2023/09/15 12:00:58;;;;;;;1.30;1.30;;;;;;;;;;4993692;28;20837;-70
2023/09/15 12:03:24;;;;;;;5.43;1.60;;;;;;;;;;4996668;28;20026;-70
2023/09/15 12:05:50;;;;;;;1.70;1.60;;;;;;;;;;4988599;28;20042;-70
2023/09/15 12:08:16;;;;;;;1.58;1.40;;;;;;;;;;4990109;28;20030;-70
2023/09/15 12:10:42;;;;;;;2.15;1.48;;;;;;;;;;4986791;28;20034;-70
2023/09/15 12:13:08;;;;;;;1.60;1.50;;;;;;;;;;4994955;28;20076;-70
2023/09/15 12:15:33;;;;;;;1.70;1.60;;;;;;;;;;4994940;28;20551;-70
2023/09/15 12:18:02;;;;;;;1.65;1.52;;;;;;;;;;4996629;28;20042;-70
2023/09/15 12:20:28;;;;;;;1.85;1.50;;;;;;;;;;4995710;28;20077;-70
2023/09/15 12:22:53;;;;;;;2.25;1.48;;;;;;;;;;4994606;28;20039;-70
2023/09/15 12:25:19;;;;;;;1.77;1.60;;;;;;;;;;4994054;28;20042;-70
2023/09/15 12:27:44;;;;;;;1.70;1.60;;;;;;;;;;4985484;28;20034;-70
2023/09/15 12:30:11;;;;;;;1.73;1.50;;;;;;;;;;4984295;28;20050;-72
2023/09/15 12:32:38;;;;;;;1.90;1.50;;;;;;;;;;4990125;28;20392;-69
2023/09/15 12:35:14;;;;;;;2.75;1.50;;;;;;;;;;4985865;28;20101;-69
2023/09/15 12:37:42;;;;;;;2.22;1.52;;;;;;;;;;4992256;28;20057;-70
2023/09/15 12:40:08;;;;;;;1.45;1.35;;;;;;;;;;4983108;28;20023;-70
2023/09/15 12:42:34;;;;;;;2.00;1.60;;;;;;;;;;4993013;28;20083;-69
2023/09/15 12:44:59;;;;;;;1.73;1.50;;;;;;;;;;4983307;28;20030;-69
2023/09/15 12:47:24;;;;;;;1.75;1.65;;;;;;;;;;4976362;28;20062;-69
2023/09/15 12:49:50;;;;;;;1.73;1.50;;;;;;;;;;4990299;28;20038;-69
2023/09/15 12:52:15;;;;;;;1.40;1.30;;;;;;;;;;4987650;28;20030;-69
2023/09/15 12:54:41;;;;;;;1.73;1.63;;;;;;;;;;4986338;28;20496;-70
2023/09/15 12:57:07;;;;;;;3.00;1.52;;;;;;;;;;4993638;28;20500;-70
2023/09/15 12:59:32;;;;;;;1.48;1.38;;;;;;;;;;4992784;28;20547;-69
2023/09/15 13:01:58;;;;;;;1.58;1.48;;;;;;;;;;4990490;28;20046;-69
2023/09/15 13:04:24;;;;;;;1.40;1.30;;;;;;;;;;4989881;28;20034;-69
2023/09/15 13:06:50;;;;;;;1.60;1.50;;;;;;;;;;4983223;28;20763;-69
2023/09/15 13:09:16;;;;;;;3.25;1.58;;;;;;;;;;4993897;28;20058;-69
2023/09/15 13:11:42;;;;;;;1.55;1.45;;;;;;;;;;4993678;28;20035;-69
2023/09/15 13:14:07;;;;;;;1.55;1.45;;;;;;;;;;4994370;28;20081;-69
2023/09/15 13:16:33;;;;;;;1.45;1.33;;;;;;;;;;4993298;28;20764;-69
2023/09/15 13:18:59;;;;;;;1.80;1.50;;;;;;;;;;4988768;28;20509;-69
2023/09/15 13:21:25;;;;;;;1.33;1.23;;;;;;;;;;4993202;28;20104;-69
2023/09/15 13:23:50;;;;;;;2.25;1.52;;;;;;;;;;4992154;28;20085;-69
2023/09/15 13:26:16;;;;;;;1.73;1.50;;;;;;;;;;4983632;28;20188;-69
2023/09/15 13:28:41;;;;;;;1.40;1.20;;;;;;;;;;4989450;28;20041;-69
2023/09/15 13:31:07;;;;;;;1.27;1.17;;;;;;;;;;4988869;28;20045;-69
2023/09/15 13:33:33;;;;;;;1.60;1.50;;;;;;;;;;4996563;28;20112;-70
2023/09/15 13:35:58;;;;;;;1.48;1.38;;;;;;;;;;4998679;28;20043;-69
2023/09/15 13:38:24;;;;;;;1.52;1.42;;;;;;;;;;4993460;28;20259;-69
2023/09/15 13:40:49;;;;;;;1.50;1.40;;;;;;;;;;4989160;28;20034;-70
2023/09/15 13:43:15;;;;;;;1.63;1.38;;;;;;;;;;4991620;28;20416;-70
2023/09/15 13:45:51;;;;;;;1.70;1.27;;;;;;;;;;4992147;28;20038;-69
2023/09/15 13:48:16;;;;;;;1.48;1.25;;;;;;;;;;4990141;28;20065;-69
2023/09/15 13:50:42;;;;;;;2.80;1.30;;;;;;;;;;4988906;28;20035;-70
2023/09/15 13:53:08;;;;;;;2.22;1.40;;;;;;;;;;4994053;28;20036;-70
2023/09/15 13:55:33;;;;;;;1.42;1.20;;;;;;;;;;5022023;28;20042;-70
2023/09/15 13:57:58;;;;;;;1.77;1.20;;;;;;;;;;4995177;28;20030;-69
2023/09/15 14:00:24;;;;;;;1.42;1.30;;;;;;;;;;4992878;28;20400;-73
2023/09/15 14:02:49;;;;;;;3.75;1.30;;;;;;;;;;4986023;28;20022;-72
2023/09/15 14:05:15;;;;;;;1.63;1.30;;;;;;;;;;4990132;28;20042;-72
2023/09/15 14:07:40;;;;;;;2.08;1.40;;;;;;;;;;4989835;28;20026;-73
2023/09/15 14:10:06;;;;;;;2.50;1.17;;;;;;;;;;4994747;28;20041;-70
2023/09/15 14:12:31;;;;;;;2.40;1.30;;;;;;;;;;4991881;28;20476;-69
2023/09/15 14:14:56;;;;;;;4.82;1.40;;;;;;;;;;4989538;28;20034;-68
2023/09/15 14:17:23;;;;;;;3.08;1.17;;;;;;;;;;4994591;28;20030;-67
2023/09/15 14:19:49;;;;;;;1.42;1.30;;;;;;;;;;4988216;28;20092;-69
2023/09/15 14:22:14;;;;;;;1.52;1.40;;;;;;;;;;4985788;28;20039;-69
2023/09/15 14:24:39;;;;;;;4.13;1.33;;;;;;;;;;4993977;28;20117;-69
2023/09/15 14:27:05;;;;;;;2.03;1.30;;;;;;;;;;4994378;28;20030;-69
2023/09/15 14:29:32;;;;;;;8.25;1.60;;;;;;;;;;4991083;28;20091;-69
2023/09/15 14:32:00;;;;;;;5.65;1.52;;;;;;;;;;4995957;28;20034;-70
2023/09/15 14:34:25;;;;;;;4.43;1.30;;;;;;;;;;4992556;28;20057;-69
2023/09/15 14:36:51;;;;;;;1.92;1.15;;;;;;;;;;4987122;28;20046;-69
2023/09/15 14:39:16;;;;;;;1.90;1.65;;;;;;;;;;4996886;28;20037;-69